Time;durP1;ratioP1;P1;durP2;ratioP2;P2;SDS_P1;SDS_P2;PMS_P1;PMS_P2;Temp;Humidity;BMP_temperature;BMP_pressure;BME280_temperature;BME280_humidity;BME280_pressure;Samples;Min_cycle;Max_cycle;Signal;HPM_P1;HPM_P2
2022/10/10 00:01:12;;;;;;;2.03;0.90;;;9.00;99.90;;;;;;5072526;28;20063;-79
2022/10/10 00:03:38;;;;;;;1.63;0.70;;;8.90;99.90;;;;;;5072830;28;20468;-79
2022/10/10 00:06:04;;;;;;;;;;;8.90;99.90;;;;;;5064104;28;20059;-79
2022/10/10 00:08:29;;;;;;;0.98;0.65;;;8.90;99.90;;;;;;5069097;28;20007;-79
2022/10/10 00:10:55;;;;;;;1.88;0.80;;;8.90;99.90;;;;;;5090072;28;20051;-79
2022/10/10 00:13:21;;;;;;;0.98;0.80;;;8.90;99.90;;;;;;5092672;28;20040;-79
2022/10/10 00:15:47;;;;;;;1.02;0.75;;;8.90;99.90;;;;;;5075852;28;20047;-79
2022/10/10 00:18:12;;;;;;;1.20;0.85;;;8.90;99.90;;;;;;5092576;28;20043;-79
2022/10/10 00:20:38;;;;;;;1.38;0.73;;;9.00;99.90;;;;;;5092822;28;20044;-78
2022/10/10 00:23:04;;;;;;;0.80;0.80;;;9.00;99.90;;;;;;5074523;28;20127;-79
2022/10/10 00:25:29;;;;;;;1.65;0.90;;;8.90;99.90;;;;;;5052300;28;20076;-78
2022/10/10 00:27:59;;;;;;;1.38;1.00;;;9.00;99.90;;;;;;5053139;28;20443;-79
2022/10/10 00:30:24;;;;;;;1.27;1.10;;;8.90;99.90;;;;;;5072235;28;20041;-79
2022/10/10 00:32:50;;;;;;;1.45;1.00;;;9.00;99.90;;;;;;5072092;28;20123;-79
2022/10/10 00:35:16;;;;;;;1.17;0.93;;;9.00;99.90;;;;;;5071874;28;20139;-77
2022/10/10 00:37:41;;;;;;;1.25;1.00;;;8.90;99.90;;;;;;5055490;28;20044;-77
2022/10/10 00:40:08;;;;;;;1.30;0.80;;;8.90;99.90;;;;;;5071137;28;20048;-77
2022/10/10 00:42:33;;;;;;;;;;;8.80;99.90;;;;;;5072445;28;20151;-79
2022/10/10 00:45:21;;;;;;;1.70;0.80;;;8.80;99.90;;;;;;5071833;28;20011;-77
2022/10/10 00:47:49;;;;;;;1.83;0.93;;;8.70;99.90;;;;;;5084527;28;20056;-76
2022/10/10 00:50:18;;;;;;;1.00;0.80;;;8.80;99.90;;;;;;5092244;28;20361;-77
2022/10/10 00:52:44;;;;;;;1.08;0.90;;;8.70;99.90;;;;;;5091911;28;20044;-77
2022/10/10 00:55:11;;;;;;;1.52;0.93;;;8.70;99.90;;;;;;5042176;28;20048;-77
2022/10/10 00:57:37;;;;;;;2.25;1.00;;;8.60;99.90;;;;;;5091096;28;20506;-78
2022/10/10 01:00:04;;;;;;;1.30;0.90;;;8.60;99.90;;;;;;5086117;28;20044;-79
2022/10/10 01:02:29;;;;;;;1.80;0.95;;;8.60;99.90;;;;;;5053952;28;20060;-78
2022/10/10 01:04:55;;;;;;;1.05;0.70;;;8.60;99.90;;;;;;5051471;28;20123;-79
2022/10/10 01:07:30;;;;;;;2.20;1.00;;;8.50;99.90;;;;;;5070227;28;20045;-78
2022/10/10 01:09:59;;;;;;;1.60;1.00;;;8.60;99.90;;;;;;5064994;28;20048;-78
2022/10/10 01:38:30;;;;;;;1.00;0.90;;;8.70;99.90;;;;;;4933774;23;20514;-72
2022/10/10 01:41:01;;;;;;;2.10;1.02;;;8.60;99.90;;;;;;4915970;29;20499;-72
2022/10/10 01:43:29;;;;;;;1.23;1.00;;;8.60;99.90;;;;;;4917866;29;20047;-72
2022/10/10 01:45:55;;;;;;;2.28;1.20;;;8.70;99.90;;;;;;4916221;29;20075;-72
2022/10/10 01:48:29;;;;;;;1.58;0.90;;;8.60;99.90;;;;;;4917434;29;20083;-72
2022/10/10 01:51:33;;;;;;;1.73;0.90;;;8.60;99.90;;;;;;4916717;29;20043;-72
2022/10/10 01:54:14;;;;;;;1.00;0.90;;;8.60;99.90;;;;;;4914347;29;20530;-72
2022/10/10 01:56:58;;;;;;;0.73;0.65;;;8.50;99.90;;;;;;4915445;29;20051;-72
2022/10/10 01:59:42;;;;;;;1.05;0.70;;;8.40;99.90;;;;;;4914257;29;20048;-72
2022/10/10 02:02:22;;;;;;;1.40;1.10;;;8.40;99.90;;;;;;4916264;29;20252;-72
2022/10/10 02:04:57;;;;;;;2.00;1.00;;;8.40;99.90;;;;;;4918804;29;20044;-72
2022/10/10 02:07:31;;;;;;;0.88;0.80;;;8.50;99.90;;;;;;4916410;29;20211;-72
2022/10/10 02:10:00;;;;;;;1.40;0.93;;;8.40;99.90;;;;;;4900958;29;20356;-72
2022/10/10 02:12:29;;;;;;;1.40;0.80;;;8.40;99.90;;;;;;4900881;29;20040;-71
2022/10/10 02:15:01;;;;;;;2.13;1.17;;;8.40;99.90;;;;;;4901271;29;20119;-72
2022/10/10 02:17:29;;;;;;;1.38;1.00;;;8.30;99.90;;;;;;4919015;29;20055;-72
2022/10/10 02:19:57;;;;;;;0.70;0.60;;;8.30;99.90;;;;;;4923211;29;20043;-72
2022/10/10 02:22:25;;;;;;;1.40;0.90;;;8.40;99.90;;;;;;4916911;29;20051;-72
2022/10/10 02:24:51;;;;;;;2.05;1.00;;;8.30;99.90;;;;;;4916761;29;20040;-72
2022/10/10 02:27:24;;;;;;;4.15;1.15;;;8.40;99.90;;;;;;4901047;29;20051;-72
2022/10/10 02:29:51;;;;;;;2.08;1.10;;;8.30;99.90;;;;;;4916731;29;20407;-72
2022/10/10 02:32:23;;;;;;;1.23;1.02;;;8.30;99.90;;;;;;4916660;29;20105;-72
2022/10/10 02:34:53;;;;;;;1.00;0.80;;;8.30;99.90;;;;;;4900789;29;20047;-72
2022/10/10 02:37:19;;;;;;;1.38;0.90;;;8.20;99.90;;;;;;4916332;29;20095;-72
2022/10/10 02:39:50;;;;;;;2.10;0.80;;;8.30;99.90;;;;;;4916428;29;20060;-72
2022/10/10 02:42:20;;;;;;;1.05;0.90;;;8.20;99.90;;;;;;4900285;29;20085;-72
2022/10/10 02:44:46;;;;;;;1.10;1.00;;;8.20;99.90;;;;;;4897518;29;20044;-71
2022/10/10 02:47:12;;;;;;;2.25;1.20;;;8.20;99.90;;;;;;4881368;29;20539;-71
2022/10/10 02:49:39;;;;;;;3.05;1.00;;;8.20;99.90;;;;;;4896747;29;20130;-72
2022/10/10 02:52:05;;;;;;;1.00;0.80;;;8.10;99.90;;;;;;4880486;29;20168;-72
2022/10/10 02:54:31;;;;;;;1.20;0.90;;;8.20;99.90;;;;;;4895699;29;20484;-72
2022/10/10 02:56:57;;;;;;;1.38;1.00;;;8.20;99.90;;;;;;4897378;29;20040;-72
2022/10/10 02:59:23;;;;;;;1.70;1.20;;;8.20;99.90;;;;;;4911679;29;20052;-72
2022/10/10 03:01:49;;;;;;;1.52;1.00;;;8.10;99.90;;;;;;4896299;29;20036;-72
2022/10/10 03:04:15;;;;;;;1.25;0.88;;;8.10;99.90;;;;;;4892337;29;20048;-72
2022/10/10 03:06:41;;;;;;;1.70;1.10;;;8.20;99.90;;;;;;4879384;29;20427;-72
2022/10/10 03:09:07;;;;;;;1.90;1.33;;;8.20;99.90;;;;;;4881007;29;20481;-72
2022/10/10 03:11:32;;;;;;;1.83;1.30;;;8.10;99.90;;;;;;4894782;29;20108;-72
2022/10/10 03:13:58;;;;;;;1.40;0.98;;;8.10;99.90;;;;;;4865423;29;20123;-72
2022/10/10 03:16:24;;;;;;;2.28;1.20;;;8.10;99.90;;;;;;4896565;29;20048;-72
2022/10/10 03:18:49;;;;;;;1.65;1.33;;;8.20;99.90;;;;;;4897495;29;20052;-72
2022/10/10 03:21:15;;;;;;;1.60;1.05;;;8.10;99.90;;;;;;4896009;29;20578;-72
2022/10/10 03:23:41;;;;;;;2.78;1.38;;;8.20;99.90;;;;;;4895986;29;20056;-72
2022/10/10 03:26:07;;;;;;;1.65;1.20;;;8.20;99.90;;;;;;4897308;29;20108;-72
2022/10/10 03:28:35;;;;;;;1.77;1.30;;;8.20;99.90;;;;;;4896120;29;20101;-72
2022/10/10 03:31:00;;;;;;;1.55;1.20;;;8.30;99.90;;;;;;4881101;29;20459;-72
2022/10/10 03:33:26;;;;;;;1.60;1.30;;;8.20;99.90;;;;;;4896604;29;20040;-72
2022/10/10 03:35:52;;;;;;;2.65;1.23;;;8.20;99.90;;;;;;4880767;29;20056;-72
2022/10/10 03:38:17;;;;;;;2.55;1.10;;;8.20;99.90;;;;;;4895608;29;20091;-72
2022/10/10 03:40:43;;;;;;;1.60;1.23;;;8.20;99.90;;;;;;4896607;29;20058;-72
2022/10/10 03:43:11;;;;;;;1.40;1.20;;;8.20;99.90;;;;;;4896184;29;20048;-72
2022/10/10 03:45:37;;;;;;;1.35;1.10;;;8.10;99.90;;;;;;4896174;29;20040;-72
2022/10/10 03:48:03;;;;;;;1.80;1.30;;;8.20;99.90;;;;;;4896001;29;20131;-72
2022/10/10 03:50:29;;;;;;;2.03;1.40;;;8.10;99.90;;;;;;4895407;29;20058;-72
2022/10/10 03:52:55;;;;;;;1.58;1.20;;;8.20;99.90;;;;;;4896083;29;20040;-72
2022/10/10 03:55:21;;;;;;;1.63;1.40;;;8.30;99.90;;;;;;4880707;29;20047;-72
2022/10/10 03:57:46;;;;;;;2.10;1.60;;;8.20;99.90;;;;;;4895836;29;20519;-72
2022/10/10 04:00:12;;;;;;;2.80;1.55;;;8.30;99.90;;;;;;4894917;29;20123;-72
2022/10/10 04:02:38;;;;;;;1.55;1.25;;;8.30;99.90;;;;;;4896133;29;20052;-72
2022/10/10 04:05:04;;;;;;;1.50;1.30;;;8.30;99.90;;;;;;4894937;29;20044;-72
2022/10/10 04:07:31;;;;;;;1.75;1.48;;;8.30;99.90;;;;;;4912293;29;20514;-72
2022/10/10 04:09:56;;;;;;;2.08;1.45;;;8.20;99.90;;;;;;4895591;29;20040;-72
2022/10/10 04:12:22;;;;;;;2.22;1.60;;;8.20;99.90;;;;;;4868469;29;20048;-71
2022/10/10 04:14:48;;;;;;;1.83;1.27;;;8.20;99.90;;;;;;4878228;29;20059;-72
2022/10/10 04:17:14;;;;;;;2.42;1.20;;;8.30;99.90;;;;;;4886041;29;20036;-72
2022/10/10 04:19:39;;;;;;;2.03;1.40;;;8.30;99.90;;;;;;4898581;29;20051;-72
2022/10/10 04:22:05;;;;;;;1.85;1.25;;;8.30;99.90;;;;;;4899191;29;20040;-72
2022/10/10 04:24:31;;;;;;;2.00;1.65;;;8.10;99.90;;;;;;4899131;29;20103;-72
2022/10/10 04:26:56;;;;;;;1.60;1.20;;;8.20;99.90;;;;;;4899100;29;20051;-72
2022/10/10 04:29:22;;;;;;;2.20;1.27;;;8.10;99.90;;;;;;4898294;29;20052;-72
2022/10/10 04:31:48;;;;;;;1.98;1.30;;;8.10;99.90;;;;;;4897871;29;20046;-72
2022/10/10 04:34:14;;;;;;;1.90;1.35;;;8.00;99.90;;;;;;4899051;29;20176;-72
2022/10/10 04:36:40;;;;;;;2.30;1.30;;;8.00;99.90;;;;;;4900111;29;20107;-72
2022/10/10 04:39:05;;;;;;;1.63;1.17;;;7.90;99.90;;;;;;4895698;29;20059;-72
2022/10/10 04:41:31;;;;;;;2.13;1.30;;;8.00;99.90;;;;;;4893791;29;20400;-72
2022/10/10 04:43:57;;;;;;;1.48;1.27;;;8.00;99.90;;;;;;4909573;29;20048;-72
2022/10/10 04:46:23;;;;;;;2.97;1.60;;;7.80;99.90;;;;;;4879209;29;20040;-72
2022/10/10 04:48:48;;;;;;;2.55;1.60;;;7.90;99.90;;;;;;4895539;29;20413;-72
2022/10/10 04:51:14;;;;;;;1.55;1.40;;;7.90;99.90;;;;;;4880186;29;20378;-72
2022/10/10 04:53:40;;;;;;;2.10;1.40;;;7.80;99.90;;;;;;4891927;29;20052;-72
2022/10/10 04:56:06;;;;;;;2.33;1.60;;;7.70;99.90;;;;;;4895114;29;20492;-72
2022/10/10 04:58:31;;;;;;;2.30;1.50;;;7.80;99.90;;;;;;4880529;29;20052;-72
2022/10/10 05:00:57;;;;;;;2.70;1.52;;;7.80;99.90;;;;;;4893289;29;20059;-72
2022/10/10 05:03:23;;;;;;;1.70;1.38;;;7.80;99.90;;;;;;4878356;29;20123;-72
2022/10/10 05:05:49;;;;;;;2.05;1.70;;;7.70;99.90;;;;;;4909076;29;20072;-72
2022/10/10 05:08:14;;;;;;;2.40;1.60;;;7.80;99.90;;;;;;4893425;29;20149;-72
2022/10/10 05:10:40;;;;;;;1.45;1.30;;;7.80;99.90;;;;;;4879852;29;20472;-72
2022/10/10 05:13:14;;;;;;;2.95;1.85;;;7.80;99.90;;;;;;4910510;29;20048;-72
2022/10/10 05:15:41;;;;;;;1.83;1.60;;;7.60;99.90;;;;;;4894481;29;20055;-72
2022/10/10 05:18:08;;;;;;;2.65;1.70;;;7.70;99.90;;;;;;4894599;29;20044;-72
2022/10/10 05:20:35;;;;;;;2.03;1.50;;;7.60;99.90;;;;;;4906147;29;20048;-71
2022/10/10 05:23:01;;;;;;;2.25;1.30;;;7.70;99.90;;;;;;4895615;29;20040;-72
2022/10/10 05:25:26;;;;;;;2.25;1.70;;;7.70;99.90;;;;;;4893486;29;20051;-72
2022/10/10 05:27:52;;;;;;;2.58;1.90;;;7.70;99.90;;;;;;4893335;29;20472;-72
2022/10/10 05:30:18;;;;;;;2.40;1.80;;;7.60;99.90;;;;;;4907653;29;20041;-72
2022/10/10 05:32:43;;;;;;;2.47;1.60;;;7.60;99.90;;;;;;4891833;29;20050;-71
2022/10/10 05:35:09;;;;;;;2.58;1.70;;;7.60;99.90;;;;;;4876088;29;20062;-72
2022/10/10 05:37:35;;;;;;;2.58;2.00;;;7.60;99.90;;;;;;4878477;29;20044;-72
2022/10/10 05:40:01;;;;;;;2.63;1.70;;;7.70;99.90;;;;;;4909267;29;20052;-72
2022/10/10 05:42:27;;;;;;;2.42;1.65;;;7.60;99.90;;;;;;4881278;29;20071;-71
2022/10/10 05:44:53;;;;;;;3.00;1.73;;;7.70;99.90;;;;;;4921083;29;20559;-72
2022/10/10 05:47:19;;;;;;;1.77;1.40;;;7.50;99.90;;;;;;4913770;29;20040;-72
2022/10/10 05:49:45;;;;;;;2.67;1.50;;;7.50;99.90;;;;;;4893977;29;20076;-72
2022/10/10 05:52:10;;;;;;;2.58;1.73;;;7.50;99.90;;;;;;4877058;29;20040;-71
2022/10/10 05:54:36;;;;;;;2.17;1.70;;;7.60;99.90;;;;;;4895811;29;20415;-71
2022/10/10 05:57:02;;;;;;;1.52;1.30;;;7.70;99.90;;;;;;4891922;29;20127;-71
2022/10/10 05:59:28;;;;;;;1.77;1.55;;;7.70;99.90;;;;;;4889302;29;20055;-71
2022/10/10 06:01:55;;;;;;;2.20;1.42;;;7.50;99.90;;;;;;4891542;29;20051;-71
2022/10/10 06:04:22;;;;;;;2.42;1.60;;;7.70;99.90;;;;;;4891797;29;20080;-72
2022/10/10 06:06:48;;;;;;;2.08;1.50;;;7.60;99.90;;;;;;4878706;29;20051;-72
2022/10/10 06:09:14;;;;;;;2.92;1.67;;;7.60;99.90;;;;;;4895165;29;20095;-73
2022/10/10 06:11:39;;;;;;;1.95;1.48;;;7.70;99.90;;;;;;4879990;29;20084;-72
2022/10/10 06:14:05;;;;;;;1.60;1.48;;;7.60;99.90;;;;;;4895099;29;20491;-72
2022/10/10 06:16:31;;;;;;;2.38;1.52;;;7.60;99.90;;;;;;4895224;29;20048;-72
2022/10/10 06:18:57;;;;;;;1.95;1.48;;;7.60;99.90;;;;;;4879784;29;20154;-71
2022/10/10 06:21:23;;;;;;;2.28;1.60;;;7.70;99.90;;;;;;4879427;29;20409;-71
2022/10/10 06:23:50;;;;;;;2.88;1.70;;;7.60;99.90;;;;;;4879755;29;20059;-72
2022/10/10 06:26:16;;;;;;;2.60;1.55;;;7.80;99.90;;;;;;4895159;29;20041;-72
2022/10/10 06:28:41;;;;;;;2.35;1.67;;;7.60;99.90;;;;;;4895088;29;20140;-72
2022/10/10 06:31:09;;;;;;;1.73;1.52;;;7.60;99.90;;;;;;4895055;29;20534;-72
2022/10/10 06:33:36;;;;;;;2.50;1.77;;;7.60;99.90;;;;;;4879163;29;20096;-72
2022/10/10 06:36:06;;;;;;;;;;;7.80;99.90;;;;;;4910776;29;20101;-72
2022/10/10 06:38:36;;;;;;;2.95;2.00;;;7.70;99.90;;;;;;4894919;29;19927;-72
2022/10/10 06:41:03;;;;;;;2.60;2.03;;;7.90;99.90;;;;;;4890728;29;20056;-72
2022/10/10 06:43:29;;;;;;;4.28;2.22;;;7.80;99.90;;;;;;4895028;29;20040;-73
2022/10/10 06:45:55;;;;;;;4.75;3.00;;;7.80;99.90;;;;;;4899512;29;20461;-72
2022/10/10 06:48:20;;;;;;;3.20;2.60;;;7.90;99.90;;;;;;4893398;29;20082;-72
2022/10/10 06:51:03;;;;;;;3.33;2.53;;;8.10;99.90;;;;;;4891549;29;20450;-72
2022/10/10 06:53:30;;;;;;;3.00;2.33;;;8.20;99.90;;;;;;4908663;29;20049;-71
2022/10/10 06:55:57;;;;;;;3.45;2.58;;;8.10;99.90;;;;;;4892340;29;20063;-72
2022/10/10 06:58:24;;;;;;;4.32;2.85;;;8.10;99.90;;;;;;4894448;29;20104;-72
2022/10/10 07:00:55;;;;;;;3.55;2.30;;;8.20;99.90;;;;;;4892065;29;20400;-72
2022/10/10 07:03:21;;;;;;;3.00;2.28;;;8.30;99.90;;;;;;4893147;29;20048;-72
2022/10/10 07:05:55;;;;;;;4.03;2.22;;;8.50;99.90;;;;;;4892258;29;20121;-72
2022/10/10 07:08:22;;;;;;;2.30;1.73;;;8.40;99.90;;;;;;4905447;29;20053;-72
2022/10/10 07:10:48;;;;;;;2.90;1.88;;;8.40;99.90;;;;;;4893440;29;20047;-72
2022/10/10 07:13:14;;;;;;;2.30;1.70;;;8.60;99.90;;;;;;4917777;29;20053;-72
2022/10/10 07:15:41;;;;;;;3.50;2.20;;;8.60;99.90;;;;;;4900546;29;20052;-72
2022/10/10 07:18:06;;;;;;;3.03;1.90;;;8.60;99.90;;;;;;4908119;29;20088;-72
2022/10/10 07:20:33;;;;;;;2.85;2.00;;;8.90;99.90;;;;;;4893085;29;20056;-73
2022/10/10 07:22:59;;;;;;;;;;;8.90;99.90;;;;;;4892184;29;20123;-73
2022/10/10 07:25:26;;;;;;;2.77;1.83;;;8.90;99.90;;;;;;4894078;29;19924;-73
2022/10/10 07:27:52;;;;;;;2.30;1.50;;;9.10;99.90;;;;;;4894039;29;20084;-72
2022/10/10 07:30:18;;;;;;;2.78;1.65;;;9.00;99.90;;;;;;4878401;29;20076;-72
2022/10/10 07:32:44;;;;;;;2.35;1.60;;;9.20;99.90;;;;;;4894210;29;20126;-72
2022/10/10 07:35:11;;;;;;;2.67;1.90;;;9.40;99.90;;;;;;4893862;29;20128;-72
2022/10/10 07:37:37;;;;;;;2.88;2.05;;;9.50;99.90;;;;;;4906210;29;20067;-72
2022/10/10 07:40:04;;;;;;;3.10;1.80;;;9.60;99.90;;;;;;4912824;29;20128;-72
2022/10/10 07:42:30;;;;;;;2.03;1.50;;;9.50;99.90;;;;;;4912829;29;20522;-73
2022/10/10 07:44:56;;;;;;;2.53;1.65;;;9.50;99.90;;;;;;4878759;29;20158;-72
2022/10/10 07:47:22;;;;;;;2.42;1.80;;;9.60;99.90;;;;;;4878336;29;20048;-72
2022/10/10 07:49:48;;;;;;;3.17;1.90;;;9.60;99.90;;;;;;4894225;29;20051;-72
2022/10/10 07:52:14;;;;;;;2.42;1.80;;;9.50;99.90;;;;;;4878981;29;20083;-72
2022/10/10 07:54:40;;;;;;;2.40;1.80;;;9.50;99.90;;;;;;4897759;29;20083;-72
2022/10/10 07:57:05;;;;;;;3.15;1.80;;;9.70;99.90;;;;;;4909095;29;20052;-72
2022/10/10 07:59:31;;;;;;;2.42;1.90;;;9.70;99.90;;;;;;4897702;29;20105;-73
2022/10/10 08:01:57;;;;;;;2.38;1.95;;;9.70;99.90;;;;;;4881941;29;20063;-73
2022/10/10 08:04:23;;;;;;;3.03;2.25;;;9.80;99.90;;;;;;4897489;29;20051;-73
2022/10/10 08:06:48;;;;;;;2.78;2.10;;;9.90;99.90;;;;;;4913019;29;20123;-73
2022/10/10 08:09:14;;;;;;;2.60;2.03;;;9.80;99.90;;;;;;4912929;29;20049;-73
2022/10/10 08:11:39;;;;;;;2.55;1.70;;;10.00;99.90;;;;;;4897864;29;20045;-73
2022/10/10 08:14:05;;;;;;;3.00;1.40;;;10.00;99.90;;;;;;4897227;29;20484;-73
2022/10/10 08:16:31;;;;;;;2.70;1.83;;;10.20;99.90;;;;;;4913092;29;20044;-73
2022/10/10 08:18:57;;;;;;;2.83;2.00;;;10.30;99.90;;;;;;4918971;29;20035;-73
2022/10/10 08:21:26;;;;;;;2.78;2.15;;;10.30;99.90;;;;;;4905809;29;20135;-72
2022/10/10 08:23:51;;;;;;;2.75;1.63;;;10.50;99.90;;;;;;4896872;29;20078;-72
2022/10/10 08:26:18;;;;;;;2.33;1.95;;;10.60;99.90;;;;;;4900501;29;20079;-72
2022/10/10 08:28:46;;;;;;;3.70;2.50;;;10.80;99.90;;;;;;4919542;29;20056;-73
2022/10/10 08:31:14;;;;;;;3.58;2.40;;;11.00;99.90;;;;;;4885080;29;20351;-73
2022/10/10 08:33:41;;;;;;;3.38;1.92;;;11.10;99.90;;;;;;4900999;29;20508;-73
2022/10/10 08:36:34;;;;;;;3.13;2.08;;;11.20;99.90;;;;;;4884426;29;20044;-73
2022/10/10 08:39:00;;;;;;;2.65;2.05;;;11.40;99.90;;;;;;4890871;29;20056;-72
2022/10/10 08:41:40;;;;;;;3.50;2.10;;;11.50;99.90;;;;;;4899028;29;20127;-72
2022/10/10 08:44:18;;;;;;;3.45;2.10;;;11.60;99.90;;;;;;4901215;29;20051;-73
2022/10/10 08:46:59;;;;;;;3.15;2.15;;;11.70;99.90;;;;;;4914058;29;20036;-72
2022/10/10 08:49:54;;;;;;;3.83;2.45;;;11.90;99.90;;;;;;4913028;29;20048;-73
2022/10/10 08:52:46;;;;;;;3.60;2.63;;;11.90;99.90;;;;;;4893251;29;20139;-72
2022/10/10 08:55:29;;;;;;;2.63;2.00;;;11.90;99.90;;;;;;4899549;29;20455;-73
2022/10/10 08:58:17;;;;;;;3.42;2.22;;;12.10;99.90;;;;;;4915280;29;20112;-73
2022/10/10 09:00:47;;;;;;;;;;;12.00;99.90;;;;;;4899991;29;20131;-73
2022/10/10 09:03:29;;;;;;;3.45;2.10;;;12.10;99.90;;;;;;4899418;29;19922;-73
2022/10/10 09:06:02;;;;;;;2.80;2.00;;;12.20;99.90;;;;;;4899192;29;20120;-73
2022/10/10 09:08:38;;;;;;;2.95;2.22;;;12.30;99.90;;;;;;4899256;29;20127;-73
2022/10/10 09:11:09;;;;;;;2.22;1.60;;;12.40;99.90;;;;;;4899392;29;20055;-72
2022/10/10 09:13:37;;;;;;;3.88;2.47;;;12.40;99.90;;;;;;4916285;29;20055;-72
2022/10/10 09:16:22;;;;;;;3.00;2.33;;;12.50;99.90;;;;;;4880572;29;20052;-72
2022/10/10 09:19:05;;;;;;;2.92;2.28;;;12.60;99.90;;;;;;4880592;29;20056;-73
2022/10/10 09:21:35;;;;;;;3.47;2.15;;;12.60;99.90;;;;;;4880570;29;20048;-72
2022/10/10 09:24:08;;;;;;;4.15;2.50;;;12.60;99.90;;;;;;4880434;29;20060;-72
2022/10/10 09:26:39;;;;;;;2.90;2.20;;;12.70;99.90;;;;;;4880478;29;20116;-72
2022/10/10 09:29:23;;;;;;;3.75;2.58;;;12.70;99.90;;;;;;4880539;29;20048;-72
2022/10/10 09:31:52;;;;;;;2.85;2.00;;;12.80;99.90;;;;;;4880389;29;20564;-72
2022/10/10 09:34:38;;;;;;;2.70;1.83;;;12.90;99.90;;;;;;4880359;29;20037;-72
2022/10/10 09:37:28;;;;;;;2.33;1.85;;;12.90;99.90;;;;;;4879487;29;20492;-72
2022/10/10 09:40:22;;;;;;;2.63;1.70;;;13.00;99.90;;;;;;4864606;29;20425;-72
2022/10/10 09:42:49;;;;;;;3.85;2.22;;;12.90;99.90;;;;;;4880132;29;20048;-72
2022/10/10 09:45:35;;;;;;;5.40;2.15;;;12.90;99.90;;;;;;4880023;29;20496;-73
2022/10/10 09:48:00;;;;;;;2.20;1.65;;;13.00;99.90;;;;;;4880231;29;20407;-73
2022/10/10 09:50:26;;;;;;;2.30;1.90;;;13.10;99.90;;;;;;4880302;29;20048;-73
2022/10/10 09:52:52;;;;;;;3.30;2.38;;;13.10;99.90;;;;;;4880163;29;20610;-72
2022/10/10 09:55:34;;;;;;;4.00;2.65;;;13.20;99.90;;;;;;4879809;29;20184;-73
2022/10/10 09:58:33;;;;;;;3.35;2.30;;;13.20;99.90;;;;;;4864835;29;20055;-73
2022/10/10 10:01:15;;;;;;;3.90;2.78;;;13.30;99.90;;;;;;4879803;29;20511;-73
2022/10/10 10:03:42;;;;;;;3.95;3.10;;;13.40;99.90;;;;;;4900358;29;20041;-73
2022/10/10 10:06:13;;;;;;;4.15;3.00;;;13.40;99.90;;;;;;4883171;29;20036;-73
2022/10/10 10:08:41;;;;;;;2.47;2.20;;;13.50;99.90;;;;;;4882057;29;20095;-73
2022/10/10 10:11:24;;;;;;;3.90;2.78;;;13.70;99.90;;;;;;4906436;29;20040;-73
2022/10/10 10:13:55;;;;;;;3.08;2.45;;;13.70;99.90;;;;;;4898594;29;20044;-73
2022/10/10 10:16:33;;;;;;;2.63;1.70;;;14.00;99.90;;;;;;4904626;29;20047;-73
2022/10/10 10:18:59;;;;;;;3.80;2.10;;;14.10;99.90;;;;;;4906974;29;20040;-73
2022/10/10 10:21:25;;;;;;;3.45;2.30;;;14.10;99.90;;;;;;4915442;29;20108;-73
2022/10/10 10:23:53;;;;;;;;;;;14.10;99.90;;;;;;4896919;29;20047;-73
2022/10/10 10:26:23;;;;;;;3.40;2.22;;;14.30;99.90;;;;;;4895915;29;20013;-73
2022/10/10 10:28:51;;;;;;;2.55;1.92;;;14.20;99.90;;;;;;4899992;29;20052;-73
2022/10/10 10:31:47;;;;;;;3.97;2.53;;;14.20;99.90;;;;;;4896956;29;20099;-73
2022/10/10 10:34:18;;;;;;;2.72;2.38;;;14.30;99.90;;;;;;4909648;29;20147;-74
2022/10/10 10:37:04;;;;;;;3.70;2.50;;;14.20;99.90;;;;;;4903714;29;20143;-73
2022/10/10 10:39:39;;;;;;;3.17;2.20;;;14.40;99.90;;;;;;4897360;29;20052;-73
2022/10/10 10:42:39;;;;;;;2.08;1.80;;;14.80;99.90;;;;;;4898182;29;20111;-73
2022/10/10 10:45:15;;;;;;;5.68;2.60;;;15.20;99.90;;;;;;4897750;29;20059;-73
2022/10/10 10:47:49;;;;;;;4.03;2.15;;;15.60;99.90;;;;;;4897832;29;20511;-73
2022/10/10 10:50:36;;;;;;;3.53;2.22;;;15.90;99.90;;;;;;4897955;29;20567;-73
2022/10/10 10:53:23;;;;;;;;;;;15.90;99.90;;;;;;4898133;29;20103;-73
2022/10/10 10:56:14;;;;;;;3.55;2.20;;;15.80;99.90;;;;;;4898092;29;19958;-73
2022/10/10 10:59:03;;;;;;;2.95;2.20;;;15.80;99.90;;;;;;4897439;29;20586;-73
2022/10/10 11:02:06;;;;;;;3.42;2.20;;;15.70;99.90;;;;;;4885665;29;20048;-73
2022/10/10 11:04:41;;;;;;;2.13;1.75;;;15.70;99.90;;;;;;4896496;29;20445;-74
2022/10/10 11:07:25;;;;;;;3.47;2.08;;;15.70;99.90;;;;;;4897305;29;20076;-74
2022/10/10 11:10:09;;;;;;;2.70;1.83;;;15.60;99.90;;;;;;4897831;29;20055;-74
2022/10/10 11:12:57;;;;;;;5.07;2.50;;;15.50;99.90;;;;;;4897778;29;20389;-74
2022/10/10 11:15:31;;;;;;;2.90;2.30;;;15.30;99.90;;;;;;4897084;29;20121;-73
2022/10/10 11:18:08;;;;;;;4.15;2.00;;;15.10;99.90;;;;;;4897395;29;20052;-74
2022/10/10 11:20:42;;;;;;;1.90;1.23;;;15.10;99.90;;;;;;4897515;29;20070;-74
2022/10/10 11:23:21;;;;;;;3.42;2.28;;;15.10;99.90;;;;;;4897338;29;20091;-73
2022/10/10 11:26:03;;;;;;;5.45;3.22;;;14.90;99.90;;;;;;4897086;29;20076;-74
2022/10/10 11:28:44;;;;;;;2.78;2.30;;;14.80;99.90;;;;;;4899851;29;20055;-74
2022/10/10 11:31:16;;;;;;;4.55;2.70;;;14.70;99.90;;;;;;4901295;29;20052;-74
2022/10/10 11:33:47;;;;;;;4.10;2.97;;;14.60;99.90;;;;;;4885477;29;20062;-73
2022/10/10 11:36:28;;;;;;;4.78;3.15;;;14.50;99.90;;;;;;4901020;29;20048;-74
2022/10/10 11:39:13;;;;;;;6.53;3.10;;;14.50;99.90;;;;;;4901214;29;20430;-73
2022/10/10 11:42:20;;;;;;;4.57;3.15;;;14.40;99.90;;;;;;4902286;29;20052;-72
2022/10/10 11:45:01;;;;;;;3.55;2.70;;;14.30;99.90;;;;;;4884811;29;20079;-73
2022/10/10 11:47:59;;;;;;;3.50;2.72;;;14.20;99.90;;;;;;4899341;29;20058;-72
2022/10/10 11:50:28;;;;;;;3.78;2.30;;;14.20;99.90;;;;;;4876934;29;20056;-72
2022/10/10 11:53:15;;;;;;;4.20;2.60;;;14.20;99.90;;;;;;4888844;29;20055;-71
2022/10/10 11:55:53;;;;;;;4.53;2.90;;;14.10;99.90;;;;;;4906788;29;20040;-72
2022/10/10 11:58:29;;;;;;;3.05;2.30;;;14.20;99.90;;;;;;4881885;29;20540;-72
2022/10/10 12:01:21;;;;;;;4.47;2.67;;;14.30;99.90;;;;;;4896972;29;20112;-72
2022/10/10 12:03:48;;;;;;;3.70;3.03;;;14.30;99.90;;;;;;4901473;29;20044;-72
2022/10/10 12:06:37;;;;;;;5.38;3.08;;;14.20;99.90;;;;;;4899208;29;20052;-72
2022/10/10 12:09:16;;;;;;;3.10;2.40;;;14.30;99.90;;;;;;4897121;29;20086;-72
2022/10/10 12:12:07;;;;;;;4.30;2.78;;;14.10;99.90;;;;;;4901778;29;20051;-72
2022/10/10 12:14:37;;;;;;;6.60;3.72;;;14.30;99.90;;;;;;4907750;29;20408;-71
2022/10/10 12:17:04;;;;;;;4.15;2.80;;;14.20;99.90;;;;;;4899086;29;20047;-72
2022/10/10 12:19:29;;;;;;;5.00;3.30;;;14.20;99.90;;;;;;4894979;29;20712;-72
2022/10/10 12:21:57;;;;;;;5.72;2.90;;;14.30;99.90;;;;;;4898885;29;20055;-72
2022/10/10 12:24:25;;;;;;;5.55;3.60;;;14.20;99.90;;;;;;4896565;29;20565;-72
2022/10/10 12:26:54;;;;;;;3.88;3.00;;;14.30;99.90;;;;;;4900470;29;20036;-72
2022/10/10 12:29:40;;;;;;;5.00;3.22;;;14.40;99.90;;;;;;4900012;29;20094;-73
2022/10/10 12:32:22;;;;;;;5.82;3.50;;;14.20;99.90;;;;;;4883205;29;20175;-72
2022/10/10 12:34:48;;;;;;;5.38;3.70;;;14.20;99.90;;;;;;4896932;29;20440;-73
2022/10/10 12:37:30;;;;;;;5.63;4.10;;;14.10;99.90;;;;;;4894412;29;20095;-72
2022/10/10 12:40:18;;;;;;;4.47;2.88;;;14.20;99.90;;;;;;4894219;29;20069;-74
2022/10/10 12:42:47;;;;;;;5.65;3.65;;;14.10;99.90;;;;;;4894462;29;20053;-72
2022/10/10 12:45:28;;;;;;;6.05;3.65;;;14.00;99.90;;;;;;4894236;29;20425;-72
2022/10/10 12:48:02;;;;;;;8.45;4.00;;;14.00;99.90;;;;;;4892695;29;20036;-72
2022/10/10 12:50:29;;;;;;;5.22;2.95;;;13.80;99.90;;;;;;4904838;29;20134;-72
2022/10/10 12:52:58;;;;;;;4.65;2.70;;;13.80;99.90;;;;;;4895168;29;20036;-71
2022/10/10 12:55:28;;;;;;;4.82;2.83;;;14.00;99.90;;;;;;4891984;29;20053;-72
2022/10/10 12:57:57;;;;;;;3.38;2.75;;;14.00;99.90;;;;;;4893897;29;20056;-72
2022/10/10 13:00:27;;;;;;;4.88;2.55;;;14.00;99.90;;;;;;4892713;29;20044;-72
2022/10/10 13:03:01;;;;;;;3.65;2.90;;;13.60;99.90;;;;;;4894437;29;20048;-72
2022/10/10 13:05:35;;;;;;;4.07;2.97;;;13.90;99.90;;;;;;4893156;29;20055;-71
2022/10/10 13:08:04;;;;;;;4.85;3.03;;;13.50;99.90;;;;;;4888308;29;20074;-72
2022/10/10 13:10:31;;;;;;;4.63;3.47;;;13.50;99.90;;;;;;4896109;29;20060;-72
2022/10/10 13:13:00;;;;;;;3.47;2.90;;;13.40;99.90;;;;;;4911957;29;20088;-71
2022/10/10 13:15:27;;;;;;;5.30;3.40;;;13.50;99.90;;;;;;4883731;29;20169;-72
2022/10/10 13:17:53;;;;;;;5.30;3.53;;;13.40;99.90;;;;;;4902812;29;20060;-71
2022/10/10 13:20:36;;;;;;;3.40;2.75;;;13.70;99.90;;;;;;4903917;29;20131;-72
2022/10/10 13:23:11;;;;;;;5.22;3.30;;;13.20;99.90;;;;;;4918740;29;20123;-72
2022/10/10 13:25:38;;;;;;;5.25;3.15;;;13.30;99.90;;;;;;4894025;29;20052;-71
2022/10/10 13:28:14;;;;;;;4.00;2.42;;;13.60;99.90;;;;;;4897562;29;20119;-72
2022/10/10 13:30:40;;;;;;;3.03;2.40;;;13.50;99.90;;;;;;4921434;29;20040;-72
2022/10/10 13:33:19;;;;;;;6.68;3.75;;;13.20;99.90;;;;;;4918663;29;20054;-71
2022/10/10 13:35:46;;;;;;;6.07;3.78;;;13.50;99.90;;;;;;4888033;29;20041;-72
2022/10/10 13:38:14;;;;;;;5.10;3.80;;;13.10;99.90;;;;;;4918551;29;20040;-71
2022/10/10 13:40:42;;;;;;;8.20;4.75;;;13.00;99.90;;;;;;4906100;29;20125;-71